sensor_id;sensor_type;location;lat;lon;timestamp;P1;durP1;ratioP1;P2;durP2;ratioP2
69401;SDS011;56589;51.992;5.924;2022-08-19T00:01:56;6.80;;;5.60;;
69401;SDS011;56589;51.992;5.924;2022-08-19T00:04:24;9.40;;;6.55;;
69401;SDS011;56589;51.992;5.924;2022-08-19T00:06:53;6.40;;;5.60;;
69401;SDS011;56589;51.992;5.924;2022-08-19T00:09:20;6.85;;;5.50;;
69401;SDS011;56589;51.992;5.924;2022-08-19T00:11:48;7.47;;;5.80;;
69401;SDS011;56589;51.992;5.924;2022-08-19T00:14:18;8.52;;;6.47;;
69401;SDS011;56589;51.992;5.924;2022-08-19T00:16:46;8.30;;;6.03;;
69401;SDS011;56589;51.992;5.924;2022-08-19T00:19:13;7.15;;;6.15;;
69401;SDS011;56589;51.992;5.924;2022-08-19T00:21:40;6.93;;;5.68;;
69401;SDS011;56589;51.992;5.924;2022-08-19T00:24:07;11.43;;;7.05;;
69401;SDS011;56589;51.992;5.924;2022-08-19T00:26:35;8.02;;;7.03;;
69401;SDS011;56589;51.992;5.924;2022-08-19T00:29:02;9.75;;;6.57;;
69401;SDS011;56589;51.992;5.924;2022-08-19T00:31:34;8.85;;;6.75;;
69401;SDS011;56589;51.992;5.924;2022-08-19T00:34:01;11.77;;;7.13;;
69401;SDS011;56589;51.992;5.924;2022-08-19T00:36:27;7.63;;;6.82;;
69401;SDS011;56589;51.992;5.924;2022-08-19T00:38:52;9.68;;;7.53;;
69401;SDS011;56589;51.992;5.924;2022-08-19T00:41:19;9.30;;;7.38;;
69401;SDS011;56589;51.992;5.924;2022-08-19T00:43:58;9.63;;;7.53;;
69401;SDS011;56589;51.992;5.924;2022-08-19T00:46:28;11.55;;;8.20;;
69401;SDS011;56589;51.992;5.924;2022-08-19T00:48:57;8.70;;;7.43;;
69401;SDS011;56589;51.992;5.924;2022-08-19T00:51:25;10.13;;;8.50;;
69401;SDS011;56589;51.992;5.924;2022-08-19T00:53:54;10.05;;;7.85;;
69401;SDS011;56589;51.992;5.924;2022-08-19T00:56:23;10.02;;;7.65;;
69401;SDS011;56589;51.992;5.924;2022-08-19T00:58:51;12.48;;;8.93;;
69401;SDS011;56589;51.992;5.924;2022-08-19T01:01:17;10.18;;;8.00;;
69401;SDS011;56589;51.992;5.924;2022-08-19T01:03:45;10.10;;;8.40;;
69401;SDS011;56589;51.992;5.924;2022-08-19T01:06:11;11.18;;;8.48;;
69401;SDS011;56589;51.992;5.924;2022-08-19T01:08:37;10.82;;;8.50;;
69401;SDS011;56589;51.992;5.924;2022-08-19T01:11:03;10.27;;;8.90;;
69401;SDS011;56589;51.992;5.924;2022-08-19T01:13:30;11.75;;;8.70;;
69401;SDS011;56589;51.992;5.924;2022-08-19T01:16:00;12.30;;;8.73;;
69401;SDS011;56589;51.992;5.924;2022-08-19T01:18:29;11.05;;;8.10;;
69401;SDS011;56589;51.992;5.924;2022-08-19T01:21:03;11.07;;;8.77;;
69401;SDS011;56589;51.992;5.924;2022-08-19T01:23:40;10.25;;;9.15;;
69401;SDS011;56589;51.992;5.924;2022-08-19T01:26:05;13.13;;;9.00;;
69401;SDS011;56589;51.992;5.924;2022-08-19T01:28:31;10.57;;;8.73;;
69401;SDS011;56589;51.992;5.924;2022-08-19T01:30:57;9.57;;;8.35;;
69401;SDS011;56589;51.992;5.924;2022-08-19T01:33:23;11.50;;;8.68;;
69401;SDS011;56589;51.992;5.924;2022-08-19T01:35:49;11.38;;;8.55;;
69401;SDS011;56589;51.992;5.924;2022-08-19T01:38:19;11.40;;;8.43;;
69401;SDS011;56589;51.992;5.924;2022-08-19T01:40:50;10.57;;;8.77;;
69401;SDS011;56589;51.992;5.924;2022-08-19T01:43:17;11.68;;;8.73;;
69401;SDS011;56589;51.992;5.924;2022-08-19T01:45:45;10.68;;;9.48;;
69401;SDS011;56589;51.992;5.924;2022-08-19T01:48:11;11.52;;;8.48;;
69401;SDS011;56589;51.992;5.924;2022-08-19T01:50:37;10.77;;;8.98;;
69401;SDS011;56589;51.992;5.924;2022-08-19T01:53:05;11.75;;;8.77;;
69401;SDS011;56589;51.992;5.924;2022-08-19T01:55:35;11.02;;;8.73;;
69401;SDS011;56589;51.992;5.924;2022-08-19T01:58:08;10.52;;;8.82;;
69401;SDS011;56589;51.992;5.924;2022-08-19T02:00:42;11.85;;;9.20;;
69401;SDS011;56589;51.992;5.924;2022-08-19T02:03:08;15.05;;;8.93;;
69401;SDS011;56589;51.992;5.924;2022-08-19T02:05:34;12.73;;;8.75;;
69401;SDS011;56589;51.992;5.924;2022-08-19T02:08:00;9.68;;;8.48;;
69401;SDS011;56589;51.992;5.924;2022-08-19T02:10:26;12.35;;;9.32;;
69401;SDS011;56589;51.992;5.924;2022-08-19T02:12:52;10.82;;;9.02;;
69401;SDS011;56589;51.992;5.924;2022-08-19T02:15:23;13.43;;;9.25;;
69401;SDS011;56589;51.992;5.924;2022-08-19T02:17:49;10.23;;;9.13;;
69401;SDS011;56589;51.992;5.924;2022-08-19T02:20:15;11.05;;;8.30;;
69401;SDS011;56589;51.992;5.924;2022-08-19T02:22:42;9.70;;;8.35;;
69401;SDS011;56589;51.992;5.924;2022-08-19T02:25:08;9.95;;;8.45;;
69401;SDS011;56589;51.992;5.924;2022-08-19T02:27:35;14.07;;;8.90;;
69401;SDS011;56589;51.992;5.924;2022-08-19T02:30:02;9.98;;;8.88;;
69401;SDS011;56589;51.992;5.924;2022-08-19T02:32:33;11.75;;;9.00;;
69401;SDS011;56589;51.992;5.924;2022-08-19T02:34:59;13.52;;;9.40;;
69401;SDS011;56589;51.992;5.924;2022-08-19T02:37:25;14.23;;;9.35;;
69401;SDS011;56589;51.992;5.924;2022-08-19T02:39:51;12.90;;;9.10;;
69401;SDS011;56589;51.992;5.924;2022-08-19T02:42:19;13.48;;;9.95;;
69401;SDS011;56589;51.992;5.924;2022-08-19T02:44:45;14.00;;;8.88;;
69401;SDS011;56589;51.992;5.924;2022-08-19T02:47:11;11.65;;;9.30;;
69401;SDS011;56589;51.992;5.924;2022-08-19T02:49:39;13.75;;;9.73;;
69401;SDS011;56589;51.992;5.924;2022-08-19T02:52:05;14.52;;;10.00;;
69401;SDS011;56589;51.992;5.924;2022-08-19T02:54:31;12.52;;;8.70;;
69401;SDS011;56589;51.992;5.924;2022-08-19T02:56:57;11.75;;;9.23;;
69401;SDS011;56589;51.992;5.924;2022-08-19T02:59:22;13.85;;;9.23;;
69401;SDS011;56589;51.992;5.924;2022-08-19T03:01:49;12.32;;;9.60;;
69401;SDS011;56589;51.992;5.924;2022-08-19T03:04:15;16.15;;;9.82;;
69401;SDS011;56589;51.992;5.924;2022-08-19T03:06:44;10.48;;;9.20;;
69401;SDS011;56589;51.992;5.924;2022-08-19T03:09:12;12.15;;;10.07;;
69401;SDS011;56589;51.992;5.924;2022-08-19T03:11:39;12.63;;;8.93;;
69401;SDS011;56589;51.992;5.924;2022-08-19T03:14:05;12.52;;;9.00;;
69401;SDS011;56589;51.992;5.924;2022-08-19T03:16:35;12.48;;;9.63;;
69401;SDS011;56589;51.992;5.924;2022-08-19T03:19:07;11.38;;;9.00;;
69401;SDS011;56589;51.992;5.924;2022-08-19T03:21:33;14.98;;;10.07;;
69401;SDS011;56589;51.992;5.924;2022-08-19T03:24:03;11.27;;;9.05;;
69401;SDS011;56589;51.992;5.924;2022-08-19T03:29:00;10.85;;;8.80;;
69401;SDS011;56589;51.992;5.924;2022-08-19T03:31:28;12.32;;;8.93;;
69401;SDS011;56589;51.992;5.924;2022-08-19T03:33:54;11.65;;;8.88;;
69401;SDS011;56589;51.992;5.924;2022-08-19T03:36:20;12.70;;;9.25;;
69401;SDS011;56589;51.992;5.924;2022-08-19T03:38:49;12.63;;;9.40;;
69401;SDS011;56589;51.992;5.924;2022-08-19T03:41:21;13.45;;;8.80;;
69401;SDS011;56589;51.992;5.924;2022-08-19T03:43:50;12.48;;;9.38;;
69401;SDS011;56589;51.992;5.924;2022-08-19T03:46:19;10.85;;;8.90;;
69401;SDS011;56589;51.992;5.924;2022-08-19T03:48:48;10.43;;;8.95;;
69401;SDS011;56589;51.992;5.924;2022-08-19T03:51:17;11.73;;;9.02;;
69401;SDS011;56589;51.992;5.924;2022-08-19T03:53:45;14.50;;;10.38;;
69401;SDS011;56589;51.992;5.924;2022-08-19T03:56:12;16.05;;;10.23;;
69401;SDS011;56589;51.992;5.924;2022-08-19T03:58:41;12.00;;;9.80;;
69401;SDS011;56589;51.992;5.924;2022-08-19T04:01:09;15.75;;;10.35;;
69401;SDS011;56589;51.992;5.924;2022-08-19T04:03:38;11.93;;;10.70;;
69401;SDS011;56589;51.992;5.924;2022-08-19T04:06:09;17.00;;;10.45;;
69401;SDS011;56589;51.992;5.924;2022-08-19T04:08:36;12.00;;;9.65;;
69401;SDS011;56589;51.992;5.924;2022-08-19T04:11:06;17.05;;;11.20;;
69401;SDS011;56589;51.992;5.924;2022-08-19T04:13:33;15.25;;;11.15;;
69401;SDS011;56589;51.992;5.924;2022-08-19T04:16:01;13.88;;;11.52;;
69401;SDS011;56589;51.992;5.924;2022-08-19T04:18:28;16.45;;;11.18;;
69401;SDS011;56589;51.992;5.924;2022-08-19T04:20:53;15.70;;;11.25;;
69401;SDS011;56589;51.992;5.924;2022-08-19T04:23:19;15.63;;;11.10;;
69401;SDS011;56589;51.992;5.924;2022-08-19T04:25:45;16.23;;;11.65;;
69401;SDS011;56589;51.992;5.924;2022-08-19T04:28:11;15.25;;;11.13;;
69401;SDS011;56589;51.992;5.924;2022-08-19T04:30:39;11.73;;;10.38;;
69401;SDS011;56589;51.992;5.924;2022-08-19T04:33:10;14.63;;;11.30;;
69401;SDS011;56589;51.992;5.924;2022-08-19T04:35:38;15.80;;;11.52;;
69401;SDS011;56589;51.992;5.924;2022-08-19T04:38:07;14.02;;;10.90;;
69401;SDS011;56589;51.992;5.924;2022-08-19T04:40:33;16.48;;;11.25;;
69401;SDS011;56589;51.992;5.924;2022-08-19T04:43:04;13.25;;;10.50;;
69401;SDS011;56589;51.992;5.924;2022-08-19T04:45:30;13.15;;;10.48;;
69401;SDS011;56589;51.992;5.924;2022-08-19T04:47:56;14.68;;;10.55;;
69401;SDS011;56589;51.992;5.924;2022-08-19T04:50:24;13.27;;;10.75;;
69401;SDS011;56589;51.992;5.924;2022-08-19T04:52:51;13.20;;;10.32;;
69401;SDS011;56589;51.992;5.924;2022-08-19T04:55:17;17.27;;;11.10;;
69401;SDS011;56589;51.992;5.924;2022-08-19T04:57:42;12.40;;;10.57;;
69401;SDS011;56589;51.992;5.924;2022-08-19T05:00:09;15.52;;;11.38;;
69401;SDS011;56589;51.992;5.924;2022-08-19T05:02:36;13.25;;;11.15;;
69401;SDS011;56589;51.992;5.924;2022-08-19T05:05:03;13.77;;;11.18;;
69401;SDS011;56589;51.992;5.924;2022-08-19T05:07:33;13.15;;;10.07;;
69401;SDS011;56589;51.992;5.924;2022-08-19T05:09:59;14.57;;;10.68;;
69401;SDS011;56589;51.992;5.924;2022-08-19T05:12:25;18.55;;;11.10;;
69401;SDS011;56589;51.992;5.924;2022-08-19T05:14:51;14.73;;;11.48;;
69401;SDS011;56589;51.992;5.924;2022-08-19T05:17:17;14.18;;;10.43;;
69401;SDS011;56589;51.992;5.924;2022-08-19T05:19:43;15.77;;;12.27;;
69401;SDS011;56589;51.992;5.924;2022-08-19T05:22:08;16.70;;;11.90;;
69401;SDS011;56589;51.992;5.924;2022-08-19T05:24:37;19.45;;;14.40;;
69401;SDS011;56589;51.992;5.924;2022-08-19T05:27:03;20.38;;;14.98;;
69401;SDS011;56589;51.992;5.924;2022-08-19T05:29:29;19.58;;;14.00;;
69401;SDS011;56589;51.992;5.924;2022-08-19T05:31:56;20.30;;;15.27;;
69401;SDS011;56589;51.992;5.924;2022-08-19T05:34:23;24.02;;;15.70;;
69401;SDS011;56589;51.992;5.924;2022-08-19T05:36:51;17.63;;;15.07;;
69401;SDS011;56589;51.992;5.924;2022-08-19T05:39:19;18.33;;;15.75;;
69401;SDS011;56589;51.992;5.924;2022-08-19T05:41:48;19.85;;;15.63;;
69401;SDS011;56589;51.992;5.924;2022-08-19T05:44:19;22.95;;;15.75;;
69401;SDS011;56589;51.992;5.924;2022-08-19T05:46:45;20.38;;;17.15;;
69401;SDS011;56589;51.992;5.924;2022-08-19T05:49:12;19.77;;;15.98;;
69401;SDS011;56589;51.992;5.924;2022-08-19T05:51:39;19.75;;;16.17;;
69401;SDS011;56589;51.992;5.924;2022-08-19T05:54:05;19.83;;;15.00;;
69401;SDS011;56589;51.992;5.924;2022-08-19T05:56:31;17.75;;;15.27;;
69401;SDS011;56589;51.992;5.924;2022-08-19T05:59:00;19.23;;;14.82;;
69401;SDS011;56589;51.992;5.924;2022-08-19T06:01:26;15.95;;;13.50;;
69401;SDS011;56589;51.992;5.924;2022-08-19T06:03:52;17.65;;;14.95;;
69401;SDS011;56589;51.992;5.924;2022-08-19T06:06:18;17.30;;;15.15;;
69401;SDS011;56589;51.992;5.924;2022-08-19T06:08:45;17.33;;;15.38;;
69401;SDS011;56589;51.992;5.924;2022-08-19T06:11:13;17.30;;;15.10;;
69401;SDS011;56589;51.992;5.924;2022-08-19T06:13:43;15.75;;;14.05;;
69401;SDS011;56589;51.992;5.924;2022-08-19T06:16:13;16.90;;;13.63;;
69401;SDS011;56589;51.992;5.924;2022-08-19T06:18:39;16.08;;;13.73;;
69401;SDS011;56589;51.992;5.924;2022-08-19T06:21:05;17.15;;;13.82;;
69401;SDS011;56589;51.992;5.924;2022-08-19T06:23:31;15.40;;;13.70;;
69401;SDS011;56589;51.992;5.924;2022-08-19T06:25:56;16.23;;;13.80;;
69401;SDS011;56589;51.992;5.924;2022-08-19T06:28:22;15.90;;;14.20;;
69401;SDS011;56589;51.992;5.924;2022-08-19T06:30:48;15.25;;;12.90;;
69401;SDS011;56589;51.992;5.924;2022-08-19T06:33:16;15.15;;;13.50;;
69401;SDS011;56589;51.992;5.924;2022-08-19T06:35:42;14.52;;;13.02;;
69401;SDS011;56589;51.992;5.924;2022-08-19T06:38:08;15.25;;;13.70;;
69401;SDS011;56589;51.992;5.924;2022-08-19T06:40:34;15.32;;;13.65;;
69401;SDS011;56589;51.992;5.924;2022-08-19T06:43:00;18.30;;;13.88;;
69401;SDS011;56589;51.992;5.924;2022-08-19T06:45:25;20.20;;;14.93;;
69401;SDS011;56589;51.992;5.924;2022-08-19T06:47:51;18.77;;;14.60;;
69401;SDS011;56589;51.992;5.924;2022-08-19T06:50:20;20.83;;;17.10;;
69401;SDS011;56589;51.992;5.924;2022-08-19T06:52:46;22.67;;;18.67;;
69401;SDS011;56589;51.992;5.924;2022-08-19T06:55:12;29.67;;;21.15;;
69401;SDS011;56589;51.992;5.924;2022-08-19T06:57:38;26.25;;;19.85;;
69401;SDS011;56589;51.992;5.924;2022-08-19T07:00:05;28.13;;;21.10;;
69401;SDS011;56589;51.992;5.924;2022-08-19T07:02:33;38.00;;;22.88;;
69401;SDS011;56589;51.992;5.924;2022-08-19T07:04:59;31.17;;;22.02;;
69401;SDS011;56589;51.992;5.924;2022-08-19T07:07:27;35.72;;;23.67;;
69401;SDS011;56589;51.992;5.924;2022-08-19T07:09:53;38.05;;;24.77;;
69401;SDS011;56589;51.992;5.924;2022-08-19T07:12:18;38.85;;;26.27;;
69401;SDS011;56589;51.992;5.924;2022-08-19T07:14:44;44.08;;;27.52;;
69401;SDS011;56589;51.992;5.924;2022-08-19T07:17:10;50.85;;;31.70;;
69401;SDS011;56589;51.992;5.924;2022-08-19T07:19:37;60.92;;;35.42;;
69401;SDS011;56589;51.992;5.924;2022-08-19T07:22:06;57.53;;;35.25;;
69401;SDS011;56589;51.992;5.924;2022-08-19T07:24:35;58.60;;;34.50;;
69401;SDS011;56589;51.992;5.924;2022-08-19T07:27:03;59.97;;;35.40;;
69401;SDS011;56589;51.992;5.924;2022-08-19T07:29:32;56.03;;;32.95;;
69401;SDS011;56589;51.992;5.924;2022-08-19T07:32:01;57.97;;;34.70;;
69401;SDS011;56589;51.992;5.924;2022-08-19T07:34:29;54.75;;;33.13;;
69401;SDS011;56589;51.992;5.924;2022-08-19T07:36:56;58.17;;;33.92;;
69401;SDS011;56589;51.992;5.924;2022-08-19T07:39:23;55.70;;;33.55;;
69401;SDS011;56589;51.992;5.924;2022-08-19T07:41:55;55.08;;;33.90;;
69401;SDS011;56589;51.992;5.924;2022-08-19T07:44:23;54.28;;;34.13;;
69401;SDS011;56589;51.992;5.924;2022-08-19T07:46:51;54.05;;;34.28;;
69401;SDS011;56589;51.992;5.924;2022-08-19T07:49:20;57.55;;;35.55;;
69401;SDS011;56589;51.992;5.924;2022-08-19T07:51:48;54.67;;;33.83;;
69401;SDS011;56589;51.992;5.924;2022-08-19T07:54:16;55.47;;;35.40;;
69401;SDS011;56589;51.992;5.924;2022-08-19T07:56:44;53.55;;;34.58;;
69401;SDS011;56589;51.992;5.924;2022-08-19T07:59:13;56.33;;;35.58;;
69401;SDS011;56589;51.992;5.924;2022-08-19T08:01:39;57.53;;;38.53;;
69401;SDS011;56589;51.992;5.924;2022-08-19T08:04:05;58.88;;;38.63;;
69401;SDS011;56589;51.992;5.924;2022-08-19T08:06:32;64.18;;;39.60;;
69401;SDS011;56589;51.992;5.924;2022-08-19T08:08:58;58.92;;;38.60;;
69401;SDS011;56589;51.992;5.924;2022-08-19T08:11:24;61.42;;;37.40;;
69401;SDS011;56589;51.992;5.924;2022-08-19T08:13:50;60.17;;;39.00;;
69401;SDS011;56589;51.992;5.924;2022-08-19T08:16:18;57.85;;;38.00;;
69401;SDS011;56589;51.992;5.924;2022-08-19T08:18:44;55.72;;;37.60;;
69401;SDS011;56589;51.992;5.924;2022-08-19T08:21:09;58.78;;;37.25;;
69401;SDS011;56589;51.992;5.924;2022-08-19T08:23:35;53.70;;;37.60;;
69401;SDS011;56589;51.992;5.924;2022-08-19T08:26:01;51.05;;;36.65;;
69401;SDS011;56589;51.992;5.924;2022-08-19T08:28:27;54.13;;;38.85;;
69401;SDS011;56589;51.992;5.924;2022-08-19T08:30:52;52.15;;;37.03;;
69401;SDS011;56589;51.992;5.924;2022-08-19T08:33:22;50.10;;;36.80;;
69401;SDS011;56589;51.992;5.924;2022-08-19T08:35:50;50.37;;;36.17;;
69401;SDS011;56589;51.992;5.924;2022-08-19T08:38:16;49.38;;;36.35;;
69401;SDS011;56589;51.992;5.924;2022-08-19T08:40:43;47.55;;;33.92;;
69401;SDS011;56589;51.992;5.924;2022-08-19T08:43:18;47.30;;;35.60;;
69401;SDS011;56589;51.992;5.924;2022-08-19T08:45:52;45.17;;;32.90;;
69401;SDS011;56589;51.992;5.924;2022-08-19T08:48:31;45.50;;;34.00;;
69401;SDS011;56589;51.992;5.924;2022-08-19T08:51:07;40.08;;;28.25;;
69401;SDS011;56589;51.992;5.924;2022-08-19T08:53:39;34.50;;;26.02;;
69401;SDS011;56589;51.992;5.924;2022-08-19T08:56:09;43.67;;;28.38;;
69401;SDS011;56589;51.992;5.924;2022-08-19T08:58:36;37.00;;;25.65;;
69401;SDS011;56589;51.992;5.924;2022-08-19T09:01:15;37.92;;;24.73;;
69401;SDS011;56589;51.992;5.924;2022-08-19T09:03:43;34.88;;;24.98;;
69401;SDS011;56589;51.992;5.924;2022-08-19T09:06:11;35.45;;;24.35;;
69401;SDS011;56589;51.992;5.924;2022-08-19T09:08:48;39.90;;;26.15;;
69401;SDS011;56589;51.992;5.924;2022-08-19T09:11:28;35.72;;;24.67;;
69401;SDS011;56589;51.992;5.924;2022-08-19T09:14:15;36.70;;;25.48;;
69401;SDS011;56589;51.992;5.924;2022-08-19T09:16:59;38.42;;;25.23;;
69401;SDS011;56589;51.992;5.924;2022-08-19T09:19:28;34.25;;;23.98;;
69401;SDS011;56589;51.992;5.924;2022-08-19T09:21:54;31.30;;;22.67;;
69401;SDS011;56589;51.992;5.924;2022-08-19T09:24:21;29.50;;;22.92;;
69401;SDS011;56589;51.992;5.924;2022-08-19T09:26:47;36.78;;;25.83;;
69401;SDS011;56589;51.992;5.924;2022-08-19T09:29:12;35.53;;;25.27;;
69401;SDS011;56589;51.992;5.924;2022-08-19T09:31:39;34.08;;;24.67;;
69401;SDS011;56589;51.992;5.924;2022-08-19T09:34:04;36.85;;;24.83;;
69401;SDS011;56589;51.992;5.924;2022-08-19T09:36:33;33.55;;;23.00;;
69401;SDS011;56589;51.992;5.924;2022-08-19T09:38:59;32.40;;;22.45;;
69401;SDS011;56589;51.992;5.924;2022-08-19T09:41:25;33.90;;;24.05;;
69401;SDS011;56589;51.992;5.924;2022-08-19T09:43:52;31.33;;;23.10;;
69401;SDS011;56589;51.992;5.924;2022-08-19T09:46:20;36.63;;;23.77;;
69401;SDS011;56589;51.992;5.924;2022-08-19T09:48:48;33.03;;;22.48;;
69401;SDS011;56589;51.992;5.924;2022-08-19T09:51:16;33.17;;;21.50;;
69401;SDS011;56589;51.992;5.924;2022-08-19T09:53:47;29.88;;;21.27;;
69401;SDS011;56589;51.992;5.924;2022-08-19T09:56:14;27.63;;;20.25;;
69401;SDS011;56589;51.992;5.924;2022-08-19T09:58:41;31.08;;;20.95;;
69401;SDS011;56589;51.992;5.924;2022-08-19T10:01:07;31.73;;;20.13;;
69401;SDS011;56589;51.992;5.924;2022-08-19T10:03:33;28.90;;;19.65;;
69401;SDS011;56589;51.992;5.924;2022-08-19T10:06:02;28.45;;;19.88;;
69401;SDS011;56589;51.992;5.924;2022-08-19T10:08:31;24.95;;;18.23;;
69401;SDS011;56589;51.992;5.924;2022-08-19T10:11:03;24.50;;;18.50;;
69401;SDS011;56589;51.992;5.924;2022-08-19T10:13:30;25.45;;;17.67;;
69401;SDS011;56589;51.992;5.924;2022-08-19T10:16:02;23.90;;;16.48;;
69401;SDS011;56589;51.992;5.924;2022-08-19T10:18:30;21.58;;;16.15;;
69401;SDS011;56589;51.992;5.924;2022-08-19T10:21:02;24.42;;;15.90;;
69401;SDS011;56589;51.992;5.924;2022-08-19T10:23:32;22.23;;;16.48;;
69401;SDS011;56589;51.992;5.924;2022-08-19T10:26:01;24.90;;;15.00;;
69401;SDS011;56589;51.992;5.924;2022-08-19T10:28:28;19.73;;;15.63;;
69401;SDS011;56589;51.992;5.924;2022-08-19T10:30:54;22.40;;;16.88;;
69401;SDS011;56589;51.992;5.924;2022-08-19T10:33:19;27.75;;;17.27;;
69401;SDS011;56589;51.992;5.924;2022-08-19T10:35:45;22.92;;;16.58;;
69401;SDS011;56589;51.992;5.924;2022-08-19T10:38:11;26.65;;;17.65;;
69401;SDS011;56589;51.992;5.924;2022-08-19T10:40:37;23.83;;;16.00;;
69401;SDS011;56589;51.992;5.924;2022-08-19T10:43:05;26.77;;;18.00;;
69401;SDS011;56589;51.992;5.924;2022-08-19T10:45:31;26.13;;;17.40;;
69401;SDS011;56589;51.992;5.924;2022-08-19T10:47:56;29.25;;;18.60;;
69401;SDS011;56589;51.992;5.924;2022-08-19T10:50:22;30.55;;;18.73;;
69401;SDS011;56589;51.992;5.924;2022-08-19T10:52:48;25.27;;;17.00;;
69401;SDS011;56589;51.992;5.924;2022-08-19T10:55:15;26.55;;;16.55;;
69401;SDS011;56589;51.992;5.924;2022-08-19T10:57:43;26.92;;;18.92;;
69401;SDS011;56589;51.992;5.924;2022-08-19T11:00:12;28.63;;;17.88;;
69401;SDS011;56589;51.992;5.924;2022-08-19T11:02:39;24.88;;;17.98;;
69401;SDS011;56589;51.992;5.924;2022-08-19T11:05:06;27.70;;;18.42;;
69401;SDS011;56589;51.992;5.924;2022-08-19T11:07:33;28.70;;;17.38;;
69401;SDS011;56589;51.992;5.924;2022-08-19T11:09:58;23.35;;;16.38;;
69401;SDS011;56589;51.992;5.924;2022-08-19T11:12:24;27.05;;;16.85;;
69401;SDS011;56589;51.992;5.924;2022-08-19T11:14:50;25.20;;;17.10;;
69401;SDS011;56589;51.992;5.924;2022-08-19T11:17:18;24.13;;;16.10;;
69401;SDS011;56589;51.992;5.924;2022-08-19T11:19:44;24.10;;;15.70;;
69401;SDS011;56589;51.992;5.924;2022-08-19T11:22:10;24.70;;;18.00;;
69401;SDS011;56589;51.992;5.924;2022-08-19T11:24:36;23.05;;;16.25;;
69401;SDS011;56589;51.992;5.924;2022-08-19T11:27:03;24.70;;;16.95;;
69401;SDS011;56589;51.992;5.924;2022-08-19T11:29:32;24.67;;;15.25;;
69401;SDS011;56589;51.992;5.924;2022-08-19T11:31:58;22.73;;;15.43;;
69401;SDS011;56589;51.992;5.924;2022-08-19T11:34:27;24.63;;;16.25;;
69401;SDS011;56589;51.992;5.924;2022-08-19T11:36:53;20.08;;;14.82;;
69401;SDS011;56589;51.992;5.924;2022-08-19T11:39:21;26.17;;;14.63;;
69401;SDS011;56589;51.992;5.924;2022-08-19T11:41:47;20.52;;;14.65;;
69401;SDS011;56589;51.992;5.924;2022-08-19T11:44:13;19.05;;;13.45;;
69401;SDS011;56589;51.992;5.924;2022-08-19T11:46:40;18.25;;;14.07;;
69401;SDS011;56589;51.992;5.924;2022-08-19T11:49:09;25.73;;;15.63;;
69401;SDS011;56589;51.992;5.924;2022-08-19T11:51:37;24.38;;;15.57;;
69401;SDS011;56589;51.992;5.924;2022-08-19T11:54:04;22.40;;;14.52;;
69401;SDS011;56589;51.992;5.924;2022-08-19T11:56:31;22.75;;;13.55;;
69401;SDS011;56589;51.992;5.924;2022-08-19T11:58:57;18.92;;;13.85;;
69401;SDS011;56589;51.992;5.924;2022-08-19T12:01:25;17.10;;;12.15;;
69401;SDS011;56589;51.992;5.924;2022-08-19T12:03:52;21.77;;;13.40;;
69401;SDS011;56589;51.992;5.924;2022-08-19T12:06:21;18.20;;;12.77;;
69401;SDS011;56589;51.992;5.924;2022-08-19T12:08:51;19.33;;;12.20;;
69401;SDS011;56589;51.992;5.924;2022-08-19T12:11:17;19.45;;;12.43;;
69401;SDS011;56589;51.992;5.924;2022-08-19T12:13:44;18.38;;;12.80;;
69401;SDS011;56589;51.992;5.924;2022-08-19T12:16:10;17.73;;;13.73;;
69401;SDS011;56589;51.992;5.924;2022-08-19T12:18:40;17.48;;;12.02;;
69401;SDS011;56589;51.992;5.924;2022-08-19T12:21:07;19.58;;;12.80;;
69401;SDS011;56589;51.992;5.924;2022-08-19T12:23:33;19.27;;;13.82;;
69401;SDS011;56589;51.992;5.924;2022-08-19T12:26:01;19.20;;;14.30;;
69401;SDS011;56589;51.992;5.924;2022-08-19T12:28:27;20.17;;;13.77;;
69401;SDS011;56589;51.992;5.924;2022-08-19T12:30:52;23.30;;;15.50;;
69401;SDS011;56589;51.992;5.924;2022-08-19T12:33:18;21.00;;;13.82;;
69401;SDS011;56589;51.992;5.924;2022-08-19T12:35:45;24.52;;;16.17;;
69401;SDS011;56589;51.992;5.924;2022-08-19T12:38:11;21.77;;;15.93;;
69401;SDS011;56589;51.992;5.924;2022-08-19T12:40:37;17.55;;;13.60;;
69401;SDS011;56589;51.992;5.924;2022-08-19T12:43:06;24.13;;;17.38;;
69401;SDS011;56589;51.992;5.924;2022-08-19T12:45:33;23.17;;;15.20;;
69401;SDS011;56589;51.992;5.924;2022-08-19T12:47:59;25.40;;;16.67;;
69401;SDS011;56589;51.992;5.924;2022-08-19T12:50:25;20.33;;;15.73;;
69401;SDS011;56589;51.992;5.924;2022-08-19T12:52:51;21.60;;;15.93;;
69401;SDS011;56589;51.992;5.924;2022-08-19T12:55:17;24.50;;;16.50;;
69401;SDS011;56589;51.992;5.924;2022-08-19T12:57:43;20.75;;;15.88;;
69401;SDS011;56589;51.992;5.924;2022-08-19T13:00:15;21.40;;;15.43;;
69401;SDS011;56589;51.992;5.924;2022-08-19T13:02:45;22.98;;;14.07;;
69401;SDS011;56589;51.992;5.924;2022-08-19T13:05:15;21.38;;;15.73;;
69401;SDS011;56589;51.992;5.924;2022-08-19T13:07:45;18.92;;;14.00;;
69401;SDS011;56589;51.992;5.924;2022-08-19T13:10:11;23.05;;;17.13;;
69401;SDS011;56589;51.992;5.924;2022-08-19T13:12:41;20.33;;;16.75;;
69401;SDS011;56589;51.992;5.924;2022-08-19T13:15:08;24.17;;;17.08;;
69401;SDS011;56589;51.992;5.924;2022-08-19T13:17:38;23.98;;;15.57;;
69401;SDS011;56589;51.992;5.924;2022-08-19T13:20:05;19.60;;;13.68;;
69401;SDS011;56589;51.992;5.924;2022-08-19T13:22:33;22.00;;;17.27;;
69401;SDS011;56589;51.992;5.924;2022-08-19T13:24:59;23.75;;;16.83;;
69401;SDS011;56589;51.992;5.924;2022-08-19T13:27:25;25.15;;;17.45;;
69401;SDS011;56589;51.992;5.924;2022-08-19T13:29:50;23.45;;;16.08;;
69401;SDS011;56589;51.992;5.924;2022-08-19T13:32:16;23.20;;;16.63;;
69401;SDS011;56589;51.992;5.924;2022-08-19T13:34:44;21.08;;;16.50;;
69401;SDS011;56589;51.992;5.924;2022-08-19T13:37:10;24.20;;;17.83;;
69401;SDS011;56589;51.992;5.924;2022-08-19T13:39:36;24.60;;;15.90;;
69401;SDS011;56589;51.992;5.924;2022-08-19T13:42:02;20.95;;;14.38;;
69401;SDS011;56589;51.992;5.924;2022-08-19T13:44:29;20.52;;;16.00;;
69401;SDS011;56589;51.992;5.924;2022-08-19T13:46:55;17.70;;;14.25;;
69401;SDS011;56589;51.992;5.924;2022-08-19T13:49:27;19.33;;;12.83;;
69401;SDS011;56589;51.992;5.924;2022-08-19T13:51:56;16.35;;;13.07;;
69401;SDS011;56589;51.992;5.924;2022-08-19T13:54:22;22.40;;;14.00;;
69401;SDS011;56589;51.992;5.924;2022-08-19T13:56:48;19.75;;;14.65;;
69401;SDS011;56589;51.992;5.924;2022-08-19T13:59:14;20.58;;;13.45;;
69401;SDS011;56589;51.992;5.924;2022-08-19T14:01:40;21.17;;;13.32;;
69401;SDS011;56589;51.992;5.924;2022-08-19T14:04:06;16.70;;;13.32;;
69401;SDS011;56589;51.992;5.924;2022-08-19T14:06:33;19.35;;;14.27;;
69401;SDS011;56589;51.992;5.924;2022-08-19T14:09:02;19.58;;;15.13;;
69401;SDS011;56589;51.992;5.924;2022-08-19T14:11:29;18.33;;;13.73;;
69401;SDS011;56589;51.992;5.924;2022-08-19T14:13:55;16.70;;;13.88;;
69401;SDS011;56589;51.992;5.924;2022-08-19T14:16:20;20.73;;;15.30;;
69401;SDS011;56589;51.992;5.924;2022-08-19T14:18:46;19.33;;;16.10;;
69401;SDS011;56589;51.992;5.924;2022-08-19T14:21:16;17.02;;;13.85;;
69401;SDS011;56589;51.992;5.924;2022-08-19T14:23:46;22.30;;;16.70;;
69401;SDS011;56589;51.992;5.924;2022-08-19T14:26:15;21.48;;;16.70;;
69401;SDS011;56589;51.992;5.924;2022-08-19T14:28:43;19.55;;;15.15;;
69401;SDS011;56589;51.992;5.924;2022-08-19T14:31:10;20.63;;;15.15;;